createdAt,value
2018-04-19T00:00:17.919Z,50.63
2018-04-19T00:02:46.957Z,50.85
2018-04-19T00:05:18.071Z,51.09
2018-04-19T00:07:46.435Z,51.22
2018-04-19T00:10:18.453Z,51.52
2018-04-19T00:12:46.857Z,51.71
2018-04-19T00:15:15.242Z,51.47
2018-04-19T00:17:43.816Z,51.56
2018-04-19T00:20:18.352Z,51.57
2018-04-19T00:22:46.753Z,51.73
2018-04-19T00:25:18.424Z,51.75
2018-04-19T00:27:46.833Z,51.87
2018-04-19T00:30:18.553Z,52.10
2018-04-19T00:32:46.918Z,52.24
2018-04-19T00:35:15.359Z,52.16
2018-04-19T00:37:44.581Z,52.40
2018-04-19T00:40:19.314Z,52.98
2018-04-19T00:42:47.564Z,53.50
2018-04-19T00:45:18.965Z,54.42
2018-04-19T00:47:47.332Z,54.93
2018-04-19T00:50:15.913Z,54.85
2018-04-19T00:52:55.336Z,55.26
2018-04-19T00:55:23.720Z,55.42
2018-04-19T00:57:52.131Z,55.58
2018-04-19T01:00:20.516Z,55.76
2018-04-19T01:02:48.944Z,55.88
2018-04-19T01:05:18.602Z,56.02
2018-04-19T01:07:46.986Z,56.04
2018-04-19T01:10:18.829Z,56.14
2018-04-19T01:12:47.404Z,56.32
2018-04-19T01:15:17.053Z,56.40
2018-04-19T01:17:45.449Z,56.57
2018-04-19T01:20:17.726Z,56.61
2018-04-19T01:22:46.106Z,56.59
2018-04-19T01:25:18.017Z,56.52
2018-04-19T01:27:46.422Z,56.60
2018-04-19T01:30:14.822Z,56.66
2018-04-19T01:32:43.204Z,56.65
2018-04-19T01:35:17.644Z,56.80
2018-04-19T01:37:46.013Z,56.71
2018-04-19T01:40:17.760Z,56.92
2018-04-19T01:42:46.427Z,57.05
2018-04-19T01:45:18.217Z,56.91
2018-04-19T01:47:47.627Z,57.21
2018-04-19T01:50:18.334Z,57.45
2018-04-19T01:52:46.785Z,57.45
2018-04-19T01:55:18.156Z,57.54
2018-04-19T01:57:46.562Z,57.59
2018-04-19T02:00:18.093Z,57.46
2018-04-19T02:02:46.502Z,57.20
2018-04-19T02:05:18.436Z,57.29
2018-04-19T02:07:47.304Z,56.91
2018-04-19T02:10:18.365Z,56.84
2018-04-19T02:12:46.733Z,55.94
2018-04-19T02:15:18.408Z,55.77
2018-04-19T02:17:46.814Z,56.04
2018-04-19T02:20:20.073Z,55.97
2018-04-19T02:22:48.456Z,56.28
2018-04-19T02:25:18.688Z,56.75
2018-04-19T02:27:47.092Z,58.40
2018-04-19T02:30:16.685Z,59.86
2018-04-19T02:32:45.065Z,60.37
2018-04-19T02:35:13.719Z,60.60
2018-04-19T02:37:42.105Z,60.85
2018-04-19T02:40:16.868Z,60.90
2018-04-19T02:42:45.268Z,60.95
2018-04-19T02:45:18.151Z,60.95
2018-04-19T02:47:46.525Z,61.24
2018-04-19T02:50:18.430Z,61.04
2018-04-19T02:52:46.816Z,60.89
2018-04-19T02:55:15.195Z,60.76
2018-04-19T02:57:43.605Z,60.56
2018-04-19T03:00:11.773Z,60.58
2018-04-19T03:02:40.150Z,60.36
2018-04-19T03:05:09.399Z,60.07
2018-04-19T03:07:38.067Z,60.71
2018-04-19T03:10:10.349Z,60.55
2018-04-19T03:12:38.753Z,61.36
2018-04-19T03:17:41.561Z,61.76
2018-04-19T03:20:11.777Z,61.72
2018-04-19T03:22:40.170Z,61.77
2018-04-19T03:25:18.223Z,61.66
2018-04-19T03:27:46.397Z,61.71
2018-04-19T03:30:14.570Z,61.58
2018-04-19T03:32:43.597Z,61.41
2018-04-19T03:35:18.006Z,61.48
2018-04-19T03:37:46.381Z,61.35
2018-04-19T03:40:17.970Z,61.21
2018-04-19T03:42:46.365Z,61.05
2018-04-19T03:45:14.729Z,60.82
2018-04-19T03:47:43.843Z,60.74
2018-04-19T03:50:17.544Z,60.32
2018-04-19T03:52:45.811Z,60.28
2018-04-19T03:55:17.609Z,60.05
2018-04-19T03:57:45.979Z,59.73
2018-04-19T04:00:18.227Z,59.15
2018-04-19T04:02:46.614Z,58.79
2018-04-19T04:05:18.414Z,58.54
2018-04-19T04:07:46.836Z,58.33
2018-04-19T04:10:17.990Z,58.23
2018-04-19T04:12:46.568Z,58.11
2018-04-19T04:15:17.055Z,58.08
2018-04-19T04:17:56.622Z,58.36
2018-04-19T04:20:36.022Z,58.37
2018-04-19T04:23:25.403Z,58.60
2018-04-19T04:25:53.556Z,59.04
2018-04-19T04:28:21.954Z,59.33
2018-04-19T04:30:50.328Z,59.35
2018-04-19T04:33:18.706Z,59.46
2018-04-19T04:35:47.200Z,59.71
2018-04-19T04:38:15.582Z,59.66
2018-04-19T04:40:44.206Z,59.44
2018-04-19T04:43:12.590Z,59.43
2018-04-19T04:45:40.980Z,59.49
2018-04-19T04:48:09.355Z,59.30
2018-04-19T04:50:37.511Z,58.93
2018-04-19T04:53:05.922Z,58.49
2018-04-19T04:55:34.288Z,58.46
2018-04-19T04:58:03.034Z,58.13
2018-04-19T05:00:31.418Z,58.23
2018-04-19T05:02:59.793Z,57.89
2018-04-19T05:05:28.193Z,57.54
2018-04-19T05:07:56.351Z,56.94
2018-04-19T05:10:24.744Z,56.50
2018-04-19T05:12:53.124Z,55.84
2018-04-19T05:15:21.522Z,55.27
2018-04-19T05:17:49.906Z,54.87
2018-04-19T05:20:18.327Z,54.41
2018-04-19T05:22:46.870Z,54.14
2018-04-19T05:25:15.244Z,53.72
2018-04-19T05:27:46.752Z,53.69
2018-04-19T05:30:17.096Z,53.36
2018-04-19T05:32:45.504Z,53.38
2018-04-19T05:35:13.917Z,53.43
2018-04-19T05:37:42.352Z,53.25
2018-04-19T05:40:11.800Z,53.22
2018-04-19T05:42:40.189Z,53.01
2018-04-19T05:45:11.921Z,52.76
2018-04-19T05:47:40.342Z,52.72
2018-04-19T05:50:12.230Z,52.19
2018-04-19T05:52:40.611Z,52.08
2018-04-19T05:55:15.161Z,51.69
2018-04-19T05:57:43.310Z,51.26
2018-04-19T06:00:12.057Z,50.99
2018-04-19T06:02:40.461Z,50.57
2018-04-19T06:05:11.895Z,49.90
2018-04-19T06:07:40.301Z,49.47
2018-04-19T06:10:18.111Z,49.37
2018-04-19T06:12:46.486Z,49.38
2018-04-19T06:15:15.011Z,49.15
2018-04-19T06:17:43.576Z,49.01
2018-04-19T06:20:13.524Z,48.01
2018-04-19T06:22:41.673Z,48.33
2018-04-19T06:25:15.602Z,47.87
2018-04-19T06:27:44.721Z,47.45
2018-04-19T06:30:12.872Z,46.71
2018-04-19T06:32:41.289Z,47.94
2018-04-19T06:35:12.402Z,47.47
2018-04-19T06:37:40.776Z,47.13
2018-04-19T06:40:11.894Z,46.71
2018-04-19T06:42:40.273Z,46.59
2018-04-19T06:45:09.888Z,46.86
2018-04-19T06:47:38.284Z,46.12
2018-04-19T06:50:15.569Z,45.93
2018-04-19T06:52:43.948Z,45.44
2018-04-19T06:55:12.346Z,44.69
2018-04-19T06:57:40.717Z,44.08
2018-04-19T07:00:09.058Z,43.60
2018-04-19T07:02:37.454Z,41.98
2018-04-19T07:05:15.107Z,42.78
2018-04-19T07:07:43.529Z,42.58
2018-04-19T07:10:11.929Z,42.22
2018-04-19T07:12:40.327Z,41.84
2018-04-19T07:15:11.968Z,41.65
2018-04-19T07:17:40.143Z,41.57
2018-04-19T07:20:09.045Z,41.31
2018-04-19T07:22:37.236Z,41.46
2018-04-19T07:25:14.414Z,40.84
2018-04-19T07:27:42.571Z,40.92
2018-04-19T07:30:11.094Z,41.04
2018-04-19T07:32:39.577Z,41.11
2018-04-19T07:35:14.300Z,41.59
2018-04-19T07:37:42.697Z,40.98
2018-04-19T07:40:12.320Z,40.72
2018-04-19T07:42:40.763Z,40.70
2018-04-19T07:45:11.891Z,40.35
2018-04-19T07:47:40.289Z,40.55
2018-04-19T07:50:12.406Z,40.08
2018-04-19T07:52:40.801Z,40.39
2018-04-19T07:55:11.812Z,40.08
2018-04-19T07:57:39.950Z,40.42
2018-04-19T08:00:11.320Z,40.37
2018-04-19T08:02:39.719Z,40.39
2018-04-19T08:05:14.298Z,39.83
2018-04-19T08:07:42.686Z,39.78
2018-04-19T08:10:12.913Z,40.18
2018-04-19T08:12:41.297Z,40.00
2018-04-19T08:15:12.068Z,38.17
2018-04-19T08:17:40.697Z,37.82
2018-04-19T08:20:15.263Z,37.94
2018-04-19T08:22:43.644Z,37.42
2018-04-19T08:25:16.065Z,37.77
2018-04-19T08:27:44.460Z,36.76
2018-04-19T08:30:12.835Z,36.55
2018-04-19T08:32:41.243Z,36.90
2018-04-19T08:35:11.163Z,36.74
2018-04-19T08:37:39.943Z,36.68
2018-04-19T08:40:15.878Z,36.68
2018-04-19T08:42:44.374Z,36.37
2018-04-19T08:45:16.933Z,36.85
2018-04-19T08:47:45.327Z,37.25
2018-04-19T08:50:16.002Z,36.87
2018-04-19T08:52:44.544Z,36.96
2018-04-19T08:55:12.912Z,36.59
2018-04-19T08:57:41.295Z,36.29
2018-04-19T09:00:13.199Z,36.39
2018-04-19T09:02:41.686Z,36.19
2018-04-19T09:05:10.117Z,36.00
2018-04-19T09:07:38.518Z,35.47
2018-04-19T09:10:10.749Z,35.82
2018-04-19T09:12:39.122Z,35.03
2018-04-19T09:15:10.042Z,35.30
2018-04-19T09:17:38.482Z,34.55
2018-04-19T09:20:07.047Z,35.31
2018-04-19T09:22:35.423Z,35.19
2018-04-19T09:25:03.591Z,34.91
2018-04-19T09:27:32.353Z,35.02
2018-04-19T09:30:00.520Z,35.44
2018-04-19T09:32:28.744Z,34.78
2018-04-19T09:34:56.932Z,34.30
2018-04-19T09:37:25.355Z,34.55
2018-04-19T09:39:53.733Z,34.66
2018-04-19T09:42:22.565Z,34.93
2018-04-19T09:44:51.003Z,34.99
2018-04-19T09:47:19.401Z,34.32
2018-04-19T09:49:47.559Z,34.65
2018-04-19T09:52:15.367Z,34.17
2018-04-19T09:54:43.171Z,33.42
2018-04-19T09:57:11.583Z,33.69
2018-04-19T09:59:39.974Z,33.72
2018-04-19T10:02:08.149Z,34.03
2018-04-19T10:04:36.313Z,33.57
2018-04-19T10:07:04.700Z,34.23
2018-04-19T10:09:33.073Z,33.05
2018-04-19T10:12:01.236Z,33.11
2018-04-19T10:14:29.641Z,33.59
2018-04-19T10:16:58.024Z,32.84
2018-04-19T10:19:26.180Z,32.59
2018-04-19T10:21:54.553Z,32.70
2018-04-19T10:24:22.945Z,32.58
2018-04-19T10:26:51.349Z,33.26
2018-04-19T10:29:19.792Z,31.76
2018-04-19T10:31:48.175Z,32.24
2018-04-19T10:34:16.542Z,32.29
2018-04-19T10:36:44.705Z,31.38
2018-04-19T10:39:13.093Z,30.79
2018-04-19T10:41:41.478Z,30.91
2018-04-19T10:44:09.888Z,30.90
2018-04-19T10:46:38.036Z,31.55
2018-04-19T10:49:06.430Z,31.71
2018-04-19T10:51:34.813Z,32.19
2018-04-19T10:54:03.205Z,32.73
2018-04-19T10:56:31.777Z,33.72
2018-04-19T10:59:00.161Z,33.82
2018-04-19T11:01:28.542Z,33.92
2018-04-19T11:03:56.946Z,34.13
2018-04-19T11:06:25.101Z,33.69
2018-04-19T11:08:53.477Z,34.25
2018-04-19T11:11:21.867Z,33.69
2018-04-19T11:13:50.298Z,33.49
2018-04-19T11:16:18.747Z,33.35
2018-04-19T11:18:47.122Z,33.29
2018-04-19T11:21:15.506Z,33.26
2018-04-19T11:23:43.908Z,32.84
2018-04-19T11:26:12.294Z,32.88
2018-04-19T11:28:40.668Z,33.49
2018-04-19T11:31:08.802Z,33.28
2018-04-19T11:33:37.189Z,33.18
2018-04-19T11:36:05.564Z,33.31
2018-04-19T11:38:33.946Z,32.99
2018-04-19T11:41:02.359Z,32.77
2018-04-19T11:43:30.899Z,32.82
2018-04-19T11:45:59.357Z,33.23
2018-04-19T11:48:27.748Z,32.43
2018-04-19T11:50:56.141Z,32.51
2018-04-19T11:53:24.525Z,32.79
2018-04-19T11:55:52.992Z,32.84
2018-04-19T11:58:21.545Z,32.46
2018-04-19T12:00:49.941Z,32.66
2018-04-19T12:03:18.336Z,32.17
2018-04-19T12:05:46.728Z,32.36
2018-04-19T12:08:15.099Z,32.23
2018-04-19T12:10:43.487Z,31.86
2018-04-19T12:13:11.919Z,31.74
2018-04-19T12:15:40.320Z,31.91
2018-04-19T12:18:08.696Z,32.27
2018-04-19T12:20:37.023Z,32.75
2018-04-19T12:23:05.159Z,31.64
2018-04-19T12:25:33.544Z,31.03
2018-04-19T12:28:01.930Z,30.42
2018-04-19T12:30:30.317Z,30.12
2018-04-19T12:32:58.854Z,30.35
2018-04-19T12:35:27.027Z,30.59
2018-04-19T12:37:55.209Z,30.36
2018-04-19T12:40:23.585Z,29.90
2018-04-19T12:42:52.000Z,29.72
2018-04-19T12:45:20.419Z,30.01
2018-04-19T12:47:48.793Z,29.89
2018-04-19T12:50:17.186Z,30.19
2018-04-19T12:52:45.616Z,30.25
2018-04-19T12:55:14.025Z,30.42
2018-04-19T12:57:42.408Z,30.43
2018-04-19T13:00:12.257Z,29.83
2018-04-19T13:02:40.743Z,29.52
2018-04-19T13:05:12.099Z,29.63
2018-04-19T13:07:40.502Z,30.27
2018-04-19T13:10:08.889Z,29.94
2018-04-19T13:12:37.302Z,29.90
2018-04-19T13:15:06.086Z,28.95
2018-04-19T13:17:34.477Z,29.19
2018-04-19T13:20:02.875Z,30.07
2018-04-19T13:22:31.252Z,29.43
2018-04-19T13:24:59.638Z,29.92
2018-04-19T13:27:28.088Z,30.71
2018-04-19T13:29:56.481Z,30.51
2018-04-19T13:32:24.865Z,29.17
2018-04-19T13:34:53.269Z,28.39
2018-04-19T13:37:21.641Z,28.38
2018-04-19T13:39:50.049Z,29.12
2018-04-19T13:42:18.601Z,29.48
2018-04-19T13:44:47.017Z,28.75
2018-04-19T13:47:15.415Z,29.02
2018-04-19T13:49:43.800Z,28.88
2018-04-19T13:52:12.182Z,29.18
2018-04-19T13:54:40.578Z,28.79
2018-04-19T13:57:08.956Z,28.89
2018-04-19T13:59:37.355Z,28.95
2018-04-19T14:02:05.848Z,29.14
2018-04-19T14:04:34.375Z,28.21
2018-04-19T14:07:02.749Z,28.68
2018-04-19T14:09:31.131Z,27.96
2018-04-19T14:11:59.501Z,28.45
2018-04-19T14:14:27.878Z,28.09
2018-04-19T14:16:56.020Z,27.85
2018-04-19T14:19:24.388Z,27.83
2018-04-19T14:21:52.781Z,28.68
2018-04-19T14:24:21.530Z,29.13
2018-04-19T14:26:49.943Z,28.88
2018-04-19T14:29:18.333Z,29.06
2018-04-19T14:31:46.737Z,29.42
2018-04-19T14:34:15.105Z,29.63
2018-04-19T14:36:43.526Z,29.17
2018-04-19T14:39:11.959Z,29.43
2018-04-19T14:41:40.116Z,29.66
2018-04-19T14:44:08.526Z,29.16
2018-04-19T14:46:36.991Z,29.36
2018-04-19T14:49:05.361Z,28.63
2018-04-19T14:51:33.764Z,27.64
2018-04-19T14:54:02.224Z,27.07
2018-04-19T14:56:30.607Z,27.17
2018-04-19T14:58:59.096Z,28.28
2018-04-19T15:01:27.505Z,29.02
2018-04-19T15:03:55.888Z,29.02
2018-04-19T15:06:24.295Z,28.99
2018-04-19T15:08:52.464Z,28.92
2018-04-19T15:11:20.627Z,28.75
2018-04-19T15:13:49.428Z,28.77
2018-04-19T15:16:17.817Z,29.06
2018-04-19T15:18:46.195Z,29.04
2018-04-19T15:21:14.597Z,28.81
2018-04-19T15:23:42.782Z,28.96
2018-04-19T15:26:11.215Z,29.65
2018-04-19T15:28:39.740Z,28.47
2018-04-19T15:31:08.137Z,28.18
2018-04-19T15:33:36.540Z,28.31
2018-04-19T15:36:04.920Z,28.48
2018-04-19T15:38:33.296Z,28.20
2018-04-19T15:41:01.687Z,27.43
2018-04-19T15:43:29.847Z,27.21
2018-04-19T15:45:58.450Z,27.43
2018-04-19T15:48:26.884Z,27.81
2018-04-19T15:50:55.292Z,27.64
2018-04-19T15:53:23.674Z,27.80
2018-04-19T15:55:52.114Z,27.79
2018-04-19T15:58:20.493Z,27.75
2018-04-19T16:00:48.919Z,27.99
2018-04-19T16:03:17.292Z,27.94
2018-04-19T16:05:45.697Z,28.01
2018-04-19T16:08:15.070Z,27.96
2018-04-19T16:10:43.559Z,28.12
2018-04-19T16:13:11.966Z,28.03
2018-04-19T16:15:40.456Z,28.26
2018-04-19T16:18:08.839Z,28.19
2018-04-19T16:20:37.214Z,28.27
2018-04-19T16:23:05.273Z,28.48
2018-04-19T16:25:33.796Z,28.42
2018-04-19T16:28:02.182Z,28.60
2018-04-19T16:30:30.576Z,28.85
2018-04-19T16:32:58.975Z,28.75
2018-04-19T16:35:28.764Z,28.81
2018-04-19T16:37:56.984Z,28.80
2018-04-19T16:40:25.382Z,28.71
2018-04-19T16:42:53.707Z,28.97
2018-04-19T16:45:22.130Z,28.80
2018-04-19T16:47:50.630Z,28.92
2018-04-19T16:50:19.070Z,29.00
2018-04-19T16:52:47.504Z,29.20
2018-04-19T16:55:15.906Z,29.08
2018-04-19T16:57:44.085Z,29.05
2018-04-19T17:00:12.508Z,29.31
2018-04-19T17:02:40.883Z,29.37
2018-04-19T17:05:09.255Z,29.54
2018-04-19T17:07:37.635Z,29.62
2018-04-19T17:10:10.353Z,29.73
2018-04-19T17:12:38.498Z,29.76
2018-04-19T17:15:11.037Z,29.88
2018-04-19T17:17:39.444Z,29.64
2018-04-19T17:20:07.832Z,29.84
2018-04-19T17:22:36.211Z,30.10
2018-04-19T17:25:04.655Z,30.10
2018-04-19T17:27:36.096Z,30.19
2018-04-19T17:30:05.103Z,30.04
2018-04-19T17:32:34.635Z,30.33
2018-04-19T17:35:03.092Z,30.33
2018-04-19T17:37:31.502Z,30.53
2018-04-19T17:39:59.906Z,30.57
2018-04-19T17:42:28.318Z,30.76
2018-04-19T17:44:56.699Z,30.79
2018-04-19T17:47:25.205Z,31.06
2018-04-19T17:49:53.506Z,31.28
2018-04-19T17:52:21.655Z,31.78
2018-04-19T17:54:50.056Z,31.99
2018-04-19T17:57:18.509Z,32.11
2018-04-19T17:59:46.877Z,32.43
2018-04-19T18:02:15.484Z,32.74
2018-04-19T18:04:43.886Z,33.12
2018-04-19T18:07:12.362Z,33.24
2018-04-19T18:09:40.809Z,33.64
2018-04-19T18:12:09.206Z,33.90
2018-04-19T18:14:37.589Z,34.00
2018-04-19T18:17:05.977Z,34.50
2018-04-19T18:19:34.575Z,34.95
2018-04-19T18:22:02.969Z,35.38
2018-04-19T18:24:31.377Z,35.84
2018-04-19T18:26:59.786Z,36.28
2018-04-19T18:29:28.216Z,36.73
2018-04-19T18:31:56.604Z,37.22
2018-04-19T18:34:24.999Z,37.43
2018-04-19T18:36:53.496Z,37.74
2018-04-19T18:39:22.082Z,38.01
2018-04-19T18:41:50.505Z,38.44
2018-04-19T18:44:18.882Z,38.83
2018-04-19T18:46:47.290Z,38.88
2018-04-19T18:49:15.689Z,39.02
2018-04-19T18:51:44.088Z,38.91
2018-04-19T18:54:12.460Z,39.05
2018-04-19T18:56:40.889Z,39.15
2018-04-19T18:59:09.433Z,39.24
2018-04-19T19:01:37.809Z,39.57
2018-04-19T19:04:06.654Z,39.99
2018-04-19T19:06:35.042Z,40.38
2018-04-19T19:09:02.992Z,40.80
2018-04-19T19:11:31.550Z,41.09
2018-04-19T19:14:00.046Z,41.38
2018-04-19T19:16:28.418Z,41.57
2018-04-19T19:19:08.002Z,41.70
2018-04-19T19:21:36.378Z,41.92
2018-04-19T19:24:04.785Z,42.18
2018-04-19T19:26:33.161Z,42.43
2018-04-19T19:29:01.571Z,42.52
2018-04-19T19:31:29.953Z,42.69
2018-04-19T19:33:58.364Z,42.73
2018-04-19T19:36:26.745Z,42.97
2018-04-19T19:38:55.269Z,43.17
2018-04-19T19:41:23.662Z,43.25
2018-04-19T19:43:52.149Z,43.37
2018-04-19T19:46:20.738Z,43.54
2018-04-19T19:48:49.113Z,43.69
2018-04-19T19:51:17.488Z,43.90
2018-04-19T19:53:45.893Z,44.07
2018-04-19T19:56:14.277Z,44.19
2018-04-19T19:58:42.664Z,44.24
2018-04-19T20:01:11.068Z,44.22
2018-04-19T20:03:39.495Z,44.25
2018-04-19T20:06:07.869Z,44.18
2018-04-19T20:08:36.258Z,44.42
2018-04-19T20:11:04.681Z,44.56
2018-04-19T20:13:33.089Z,44.53
2018-04-19T20:16:02.639Z,44.42
2018-04-19T20:18:31.051Z,44.50
2018-04-19T20:20:59.621Z,44.44
2018-04-19T20:23:28.062Z,44.32
2018-04-19T20:25:56.528Z,44.46
2018-04-19T20:28:24.978Z,44.84
2018-04-19T20:30:53.366Z,45.30
2018-04-19T20:33:21.779Z,45.94
2018-04-19T20:35:50.231Z,46.10
2018-04-19T20:38:18.610Z,46.34
2018-04-19T20:40:47.020Z,46.23
2018-04-19T20:43:15.402Z,45.94
2018-04-19T20:45:43.802Z,45.50
2018-04-19T20:48:12.388Z,45.08
2018-04-19T20:50:40.786Z,44.80
2018-04-19T20:53:09.219Z,45.33
2018-04-19T20:55:37.798Z,45.44
2018-04-19T20:58:06.247Z,45.30
2018-04-19T21:00:34.619Z,45.58
2018-04-19T21:03:03.060Z,45.74
2018-04-19T21:05:31.508Z,45.96
2018-04-19T21:07:59.920Z,46.16
2018-04-19T21:10:27.853Z,46.47
2018-04-19T21:12:56.005Z,46.67
2018-04-19T21:15:24.391Z,47.02
2018-04-19T21:17:52.783Z,47.35
2018-04-19T21:20:21.172Z,47.59
2018-04-19T21:22:49.320Z,47.84
2018-04-19T21:25:17.705Z,48.20
2018-04-19T21:27:46.096Z,48.45
2018-04-19T21:30:14.482Z,48.73
2018-04-19T21:32:42.917Z,49.00
2018-04-19T21:35:11.309Z,49.32
2018-04-19T21:37:39.696Z,49.39
2018-04-19T21:40:10.020Z,49.38
2018-04-19T21:42:38.418Z,49.35
2018-04-19T21:45:10.514Z,49.15
2018-04-19T21:47:38.901Z,49.12
2018-04-19T21:50:09.222Z,49.00
2018-04-19T21:52:39.453Z,49.07
2018-04-19T21:55:07.851Z,48.93
2018-04-19T21:57:36.234Z,48.89
2018-04-19T22:00:04.321Z,48.72
2018-04-19T22:02:33.845Z,48.59
2018-04-19T22:05:02.270Z,48.57
2018-04-19T22:07:30.850Z,48.67
2018-04-19T22:09:59.349Z,48.85
2018-04-19T22:12:27.772Z,49.03
2018-04-19T22:14:56.179Z,49.26
2018-04-19T22:17:24.581Z,49.57
2018-04-19T22:19:53.620Z,49.61
2018-04-19T22:22:22.149Z,49.86
2018-04-19T22:24:50.554Z,49.89
2018-04-19T22:27:18.967Z,50.04
2018-04-19T22:29:47.341Z,50.04
2018-04-19T22:32:15.704Z,50.26
2018-04-19T22:34:44.099Z,50.70
2018-04-19T22:37:12.473Z,51.08
2018-04-19T22:39:40.875Z,51.30
2018-04-19T22:42:09.530Z,51.36
2018-04-19T22:44:37.726Z,51.35
2018-04-19T22:47:06.116Z,51.43
2018-04-19T22:49:34.524Z,51.96
2018-04-19T22:52:02.683Z,52.64
2018-04-19T22:54:31.105Z,52.89
2018-04-19T22:56:59.290Z,52.98
2018-04-19T22:59:27.730Z,52.93
2018-04-19T23:01:56.141Z,52.92
2018-04-19T23:04:24.507Z,52.69
2018-04-19T23:06:53.097Z,52.92
2018-04-19T23:09:21.480Z,53.53
2018-04-19T23:11:49.865Z,53.79
2018-04-19T23:14:18.263Z,53.90
2018-04-19T23:16:46.659Z,53.96
2018-04-19T23:19:15.075Z,54.09
2018-04-19T23:21:43.458Z,54.04
2018-04-19T23:24:11.916Z,54.28
2018-04-19T23:26:39.962Z,54.55
2018-04-19T23:29:08.345Z,54.74
2018-04-19T23:31:37.452Z,54.79
2018-04-19T23:34:05.857Z,54.91
2018-04-19T23:36:34.234Z,55.04
2018-04-19T23:39:02.631Z,54.85
2018-04-19T23:41:31.026Z,54.91
2018-04-19T23:43:59.409Z,54.78
2018-04-19T23:46:27.818Z,54.69
2018-04-19T23:48:56.211Z,54.39
2018-04-19T23:51:24.639Z,54.25
2018-04-19T23:53:53.037Z,54.37
2018-04-19T23:56:21.473Z,54.43
2018-04-19T23:58:49.874Z,54.55
